createdAt,value
2023-03-21T00:00:59.494Z,8.90
2023-03-21T00:04:05.238Z,8.95
2023-03-21T00:07:10.851Z,8.89
2023-03-21T00:10:23.896Z,8.82
2023-03-21T00:13:38.690Z,8.65
2023-03-21T00:16:46.407Z,8.77
2023-03-21T00:19:54.688Z,8.83
2023-03-21T00:23:03.801Z,8.79
2023-03-21T00:26:10.454Z,8.72
2023-03-21T00:29:19.241Z,8.79
2023-03-21T00:32:25.602Z,8.74
2023-03-21T00:38:56.557Z,8.62
2023-03-21T00:42:02.109Z,8.54
2023-03-21T00:45:10.960Z,8.71
2023-03-21T00:48:16.620Z,8.57
2023-03-21T00:51:27.451Z,8.50
2023-03-21T00:54:34.325Z,8.60
2023-03-21T00:57:40.484Z,8.52
2023-03-21T01:00:47.309Z,8.50
2023-03-21T01:04:04.848Z,8.32
2023-03-21T01:07:10.442Z,8.25
2023-03-21T01:10:17.302Z,8.32
2023-03-21T01:13:25.730Z,8.23
2023-03-21T01:16:31.221Z,8.10
2023-03-21T01:19:51.221Z,7.93
2023-03-21T01:22:58.159Z,7.88
2023-03-21T01:26:03.581Z,7.88
2023-03-21T01:29:09.703Z,7.78
2023-03-21T01:32:15.065Z,7.78
2023-03-21T01:35:20.712Z,7.76
2023-03-21T01:38:26.427Z,7.57
2023-03-21T01:41:43.119Z,7.50
2023-03-21T01:45:46.969Z,7.39
2023-03-21T01:49:01.421Z,7.28
2023-03-21T01:52:15.173Z,7.29
2023-03-21T01:55:21.151Z,6.61
2023-03-21T01:58:51.408Z,6.58
2023-03-21T02:02:15.365Z,6.63
2023-03-21T02:05:45.106Z,6.57
2023-03-21T02:08:50.489Z,6.73
2023-03-21T02:11:57.255Z,6.27
2023-03-21T02:15:09.261Z,6.37
2023-03-21T02:18:40.798Z,6.95
2023-03-21T02:21:53.817Z,7.17
2023-03-21T02:25:31.797Z,7.20
2023-03-21T02:28:46.698Z,7.33
2023-03-21T02:32:00.872Z,7.31
2023-03-21T02:35:15.599Z,7.31
2023-03-21T02:38:33.251Z,7.40
2023-03-21T02:41:44.225Z,7.33
2023-03-21T02:44:52.365Z,7.29
2023-03-21T02:48:14.576Z,7.32
2023-03-21T02:51:26.513Z,7.04
2023-03-21T02:54:47.210Z,7.17
2023-03-21T02:58:06.892Z,7.06
2023-03-21T03:01:17.317Z,7.19
2023-03-21T03:04:28.658Z,7.12
2023-03-21T03:07:57.614Z,7.29
2023-03-21T03:11:29.211Z,7.22
2023-03-21T03:15:05.051Z,7.24
2023-03-21T03:18:34.918Z,7.27
2023-03-21T03:21:56.890Z,7.35
2023-03-21T03:25:23.071Z,7.36
2023-03-21T03:28:41.928Z,7.46
2023-03-21T03:32:12.524Z,7.52
2023-03-21T03:35:23.219Z,7.44
2023-03-21T03:38:29.761Z,7.51
2023-03-21T03:42:05.849Z,7.36
2023-03-21T03:45:17.002Z,7.31
2023-03-21T03:48:46.846Z,7.30
2023-03-21T03:52:10.499Z,7.36
2023-03-21T03:55:22.718Z,7.22
2023-03-21T03:58:44.538Z,7.08
2023-03-21T04:01:54.558Z,7.45
2023-03-21T04:05:01.639Z,7.37
2023-03-21T04:08:07.206Z,7.31
2023-03-21T04:11:18.926Z,7.11
2023-03-21T04:14:42.082Z,7.16
2023-03-21T04:17:51.027Z,7.08
2023-03-21T04:20:56.663Z,7.04
2023-03-21T04:24:02.854Z,7.23
2023-03-21T04:27:08.591Z,7.02
2023-03-21T04:30:20.236Z,7.01
2023-03-21T04:33:41.556Z,7.11
2023-03-21T04:36:48.081Z,7.06
2023-03-21T04:39:54.720Z,7.23
2023-03-21T04:43:01.574Z,7.10
2023-03-21T04:46:07.681Z,7.12
2023-03-21T04:49:13.751Z,7.26
2023-03-21T04:52:21.329Z,7.13
2023-03-21T04:55:28.394Z,7.24
2023-03-21T04:58:34.094Z,7.08
2023-03-21T05:01:41.429Z,7.17
2023-03-21T05:04:48.042Z,7.01
2023-03-21T05:07:53.637Z,7.02
2023-03-21T05:10:58.869Z,6.95
2023-03-21T05:14:11.932Z,7.03
2023-03-21T05:17:23.409Z,6.95
2023-03-21T05:20:30.366Z,6.91
2023-03-21T05:23:38.683Z,6.88
2023-03-21T05:26:50.910Z,6.90
2023-03-21T05:29:57.997Z,6.87
2023-03-21T05:33:04.545Z,6.91
2023-03-21T05:36:10.820Z,6.83
2023-03-21T05:39:16.720Z,6.52
2023-03-21T05:42:31.391Z,6.60
2023-03-21T05:45:37.435Z,6.71
2023-03-21T05:48:43.373Z,6.72
2023-03-21T05:51:53.267Z,6.61
2023-03-21T05:54:59.736Z,6.76
2023-03-21T05:58:06.794Z,6.68
2023-03-21T06:01:13.036Z,6.79
2023-03-21T06:04:23.708Z,6.90
2023-03-21T06:07:29.230Z,7.10
2023-03-21T06:10:34.704Z,7.16
2023-03-21T06:13:43.008Z,7.29
2023-03-21T06:16:48.470Z,7.51
2023-03-21T06:19:54.005Z,7.60
2023-03-21T06:23:05.116Z,7.64
2023-03-21T06:26:11.024Z,7.87
2023-03-21T06:29:16.826Z,7.96
2023-03-21T06:32:28.105Z,8.00
2023-03-21T06:35:38.044Z,8.13
2023-03-21T06:38:44.174Z,8.12
2023-03-21T06:41:51.174Z,8.23
2023-03-21T06:44:57.063Z,8.38
2023-03-21T06:48:03.122Z,8.38
2023-03-21T06:51:20.484Z,8.39
2023-03-21T06:54:41.299Z,8.46
2023-03-21T06:57:49.851Z,8.58
2023-03-21T07:00:55.316Z,8.69
2023-03-21T07:04:01.337Z,8.86
2023-03-21T07:07:08.223Z,8.98
2023-03-21T07:10:19.413Z,9.00
2023-03-21T07:13:40.732Z,9.12
2023-03-21T07:16:46.600Z,9.13
2023-03-21T07:19:52.352Z,9.32
2023-03-21T07:22:58.772Z,9.45
2023-03-21T07:26:07.317Z,9.55
2023-03-21T07:29:12.935Z,9.50
2023-03-21T07:32:18.503Z,9.63
2023-03-21T07:35:24.071Z,9.80
2023-03-21T07:38:31.179Z,9.86
2023-03-21T07:41:38.220Z,9.94
2023-03-21T07:45:01.660Z,10.15
2023-03-21T07:48:13.363Z,10.28
2023-03-21T07:51:18.539Z,10.36
2023-03-21T07:54:24.273Z,10.55
2023-03-21T07:57:29.805Z,10.50
2023-03-21T08:00:35.276Z,10.73
2023-03-21T08:03:40.918Z,10.80
2023-03-21T08:06:46.463Z,10.97
2023-03-21T08:09:52.199Z,11.14
2023-03-21T08:12:58.204Z,11.32
2023-03-21T08:16:04.463Z,11.43
2023-03-21T08:19:10.026Z,11.44
2023-03-21T08:22:16.258Z,11.59
2023-03-21T08:25:22.976Z,11.68
2023-03-21T08:28:28.592Z,11.67
2023-03-21T08:31:34.095Z,11.83
2023-03-21T08:34:39.477Z,11.81
2023-03-21T08:37:44.893Z,11.91
2023-03-21T08:40:51.090Z,11.89
2023-03-21T08:43:56.867Z,12.03
2023-03-21T08:47:02.762Z,12.10
2023-03-21T08:50:11.850Z,12.18
2023-03-21T08:53:17.726Z,12.30
2023-03-21T08:56:23.402Z,12.24
2023-03-21T08:59:29.085Z,12.27
2023-03-21T09:02:34.806Z,12.46
2023-03-21T09:05:40.999Z,12.45
2023-03-21T09:08:46.955Z,12.86
2023-03-21T09:11:52.665Z,12.83
2023-03-21T09:14:58.310Z,12.84
2023-03-21T09:18:13.475Z,12.89
2023-03-21T09:21:20.696Z,13.01
2023-03-21T09:24:26.756Z,13.22
2023-03-21T09:27:32.204Z,13.17
2023-03-21T09:30:38.017Z,13.33
2023-03-21T09:33:44.134Z,13.60
2023-03-21T09:36:54.996Z,13.60
2023-03-21T09:40:01.603Z,13.74
2023-03-21T09:43:44.742Z,13.78
2023-03-21T09:47:05.632Z,13.97
2023-03-21T09:50:20.598Z,14.12
2023-03-21T09:53:33.153Z,14.18
2023-03-21T09:56:43.353Z,14.29
2023-03-21T09:59:53.530Z,14.38
2023-03-21T10:03:03.407Z,14.34
2023-03-21T10:06:15.837Z,14.48
2023-03-21T10:09:24.844Z,14.45
2023-03-21T10:12:31.436Z,14.60
2023-03-21T10:15:37.433Z,14.84
2023-03-21T10:18:47.434Z,14.89
2023-03-21T10:22:02.736Z,14.84
2023-03-21T10:25:15.697Z,15.04
2023-03-21T10:28:29.134Z,15.00
2023-03-21T10:31:37.100Z,15.28
2023-03-21T10:34:44.761Z,15.41
2023-03-21T10:37:50.598Z,15.48
2023-03-21T10:40:56.496Z,15.41
2023-03-21T10:44:12.577Z,15.67
2023-03-21T10:47:28.610Z,15.63
2023-03-21T10:50:34.221Z,15.44
2023-03-21T10:53:46.585Z,15.52
2023-03-21T10:57:29.290Z,15.66
2023-03-21T11:00:41.642Z,15.94
2023-03-21T11:03:47.370Z,15.91
2023-03-21T11:07:03.476Z,15.66
2023-03-21T11:10:29.030Z,15.70
2023-03-21T11:13:34.847Z,15.88
2023-03-21T11:16:44.374Z,16.13
2023-03-21T11:19:53.679Z,15.99
2023-03-21T11:22:59.197Z,16.13
2023-03-21T11:26:11.046Z,16.28
2023-03-21T11:29:43.053Z,16.46
2023-03-21T11:32:55.488Z,16.49
2023-03-21T11:36:04.997Z,16.50
2023-03-21T11:39:29.306Z,16.93
2023-03-21T11:42:43.676Z,16.82
2023-03-21T11:46:07.150Z,16.70
2023-03-21T11:49:12.525Z,16.72
2023-03-21T11:52:35.133Z,16.89
2023-03-21T11:56:15.139Z,16.73
2023-03-21T11:59:44.789Z,16.54
2023-03-21T12:03:27.336Z,16.70
2023-03-21T12:06:40.905Z,16.84
2023-03-21T12:09:59.139Z,16.74
2023-03-21T12:13:07.112Z,16.95
2023-03-21T12:16:36.897Z,16.59
2023-03-21T12:20:00.627Z,16.86
2023-03-21T12:23:30.353Z,17.01
2023-03-21T12:26:59.252Z,17.10
2023-03-21T12:30:53.770Z,16.97
2023-03-21T12:34:04.990Z,17.10
2023-03-21T12:37:19.192Z,17.08
2023-03-21T12:40:45.046Z,17.16
2023-03-21T12:43:59.715Z,17.41
2023-03-21T12:47:14.271Z,17.34
2023-03-21T12:50:27.790Z,17.22
2023-03-21T12:53:44.144Z,17.49
2023-03-21T12:56:55.112Z,17.56
2023-03-21T13:00:18.796Z,17.69
2023-03-21T13:03:38.945Z,17.70
2023-03-21T13:06:48.939Z,17.47
2023-03-21T13:09:55.644Z,17.68
2023-03-21T13:13:10.340Z,17.80
2023-03-21T13:16:23.049Z,17.84
2023-03-21T13:19:37.351Z,17.77
2023-03-21T13:22:42.872Z,17.88
2023-03-21T13:25:50.913Z,17.97
2023-03-21T13:28:56.062Z,18.05
2023-03-21T13:32:41.012Z,17.95
2023-03-21T13:35:55.247Z,17.91
2023-03-21T13:39:06.139Z,18.06
2023-03-21T13:42:33.766Z,17.88
2023-03-21T13:45:54.177Z,18.12
2023-03-21T13:49:10.017Z,18.19
2023-03-21T13:52:18.424Z,18.14
2023-03-21T13:55:29.466Z,18.16
2023-03-21T13:58:39.507Z,18.06
2023-03-21T14:02:00.863Z,18.14
2023-03-21T14:05:18.485Z,18.12
2023-03-21T14:08:36.868Z,18.41
2023-03-21T14:11:46.767Z,18.20
2023-03-21T14:15:06.744Z,18.33
2023-03-21T14:18:28.122Z,18.24
2023-03-21T14:21:50.718Z,18.39
2023-03-21T14:24:57.532Z,18.45
2023-03-21T14:28:08.433Z,18.60
2023-03-21T14:31:17.099Z,18.60
2023-03-21T14:34:23.896Z,18.55
2023-03-21T14:37:41.848Z,18.48
2023-03-21T14:40:50.176Z,18.45
2023-03-21T14:44:35.957Z,18.39
2023-03-21T14:48:08.588Z,18.37
2023-03-21T14:51:14.271Z,18.41
2023-03-21T14:54:20.522Z,18.50
2023-03-21T14:57:32.903Z,18.43
2023-03-21T15:00:38.205Z,18.23
2023-03-21T15:03:48.099Z,18.11
2023-03-21T15:06:59.501Z,18.11
2023-03-21T15:10:09.268Z,18.00
2023-03-21T15:13:23.133Z,17.98
2023-03-21T15:16:29.778Z,18.00
2023-03-21T15:19:39.466Z,18.01
2023-03-21T15:23:02.764Z,17.88
2023-03-21T15:26:08.658Z,17.83
2023-03-21T15:29:16.778Z,17.78
2023-03-21T15:32:25.686Z,17.80
2023-03-21T15:35:40.209Z,17.70
2023-03-21T15:38:49.102Z,17.65
2023-03-21T15:42:24.872Z,17.63
2023-03-21T15:45:30.987Z,17.48
2023-03-21T15:48:36.500Z,17.44
2023-03-21T15:51:52.521Z,17.41
2023-03-21T15:54:59.701Z,17.39
2023-03-21T15:58:13.457Z,17.30
2023-03-21T16:01:22.358Z,17.34
2023-03-21T16:04:27.308Z,17.33
2023-03-21T16:07:35.593Z,17.20
2023-03-21T16:10:41.163Z,17.19
2023-03-21T16:13:46.774Z,17.13
2023-03-21T16:16:53.227Z,17.19
2023-03-21T16:19:58.392Z,17.17
2023-03-21T16:23:03.921Z,17.07
2023-03-21T16:26:19.072Z,17.10
2023-03-21T16:29:24.152Z,17.15
2023-03-21T16:32:29.329Z,17.14
2023-03-21T16:35:34.232Z,17.09
2023-03-21T16:38:39.617Z,17.01
2023-03-21T16:41:45.468Z,16.90
2023-03-21T16:44:51.151Z,16.84
2023-03-21T16:47:57.405Z,16.76
2023-03-21T16:51:02.640Z,16.64
2023-03-21T16:54:07.771Z,16.56
2023-03-21T16:57:29.421Z,16.54
2023-03-21T17:00:35.002Z,16.43
2023-03-21T17:03:40.460Z,16.34
2023-03-21T17:06:51.984Z,16.17
2023-03-21T17:09:57.509Z,16.10
2023-03-21T17:13:02.944Z,16.04
2023-03-21T17:16:12.108Z,15.99
2023-03-21T17:19:20.697Z,15.87
2023-03-21T17:22:26.076Z,15.74
2023-03-21T17:25:31.583Z,15.57
2023-03-21T17:28:39.050Z,15.48
2023-03-21T17:31:47.796Z,15.42
2023-03-21T17:34:53.603Z,15.34
2023-03-21T17:37:58.962Z,15.21
2023-03-21T17:41:04.422Z,15.13
2023-03-21T17:44:09.426Z,15.11
2023-03-21T17:47:14.929Z,15.00
2023-03-21T17:50:24.077Z,14.92
2023-03-21T17:53:29.638Z,14.90
2023-03-21T17:56:37.801Z,14.86
2023-03-21T17:59:43.051Z,14.77
2023-03-21T18:02:49.364Z,14.71
2023-03-21T18:05:55.761Z,14.68
2023-03-21T18:09:04.975Z,14.64
2023-03-21T18:12:10.288Z,14.67
2023-03-21T18:15:18.935Z,14.63
2023-03-21T18:18:27.596Z,14.55
2023-03-21T18:21:33.269Z,14.56
2023-03-21T18:24:39.025Z,14.53
2023-03-21T18:28:06.901Z,14.52
2023-03-21T18:31:19.338Z,14.46
2023-03-21T18:34:25.318Z,14.33
2023-03-21T18:37:35.316Z,14.28
2023-03-21T18:40:41.365Z,14.30
2023-03-21T18:44:13.548Z,14.21
2023-03-21T18:47:12.837Z,14.16
2023-03-21T18:50:19.569Z,14.14
2023-03-21T18:53:25.198Z,14.12
2023-03-21T18:57:26.723Z,14.08
2023-03-21T18:59:56.880Z,14.01
2023-03-21T19:03:18.846Z,13.99
2023-03-21T19:06:29.963Z,13.95
2023-03-21T19:09:58.136Z,13.89
2023-03-21T19:13:02.640Z,13.87
2023-03-21T19:16:11.293Z,13.83
2023-03-21T19:19:19.094Z,13.79
2023-03-21T19:22:25.080Z,13.82
2023-03-21T19:25:30.152Z,13.90
2023-03-21T19:28:35.636Z,13.81
2023-03-21T19:31:50.009Z,13.78
2023-03-21T19:34:55.577Z,13.72
2023-03-21T19:38:00.894Z,13.66
2023-03-21T19:41:07.542Z,13.61
2023-03-21T19:44:12.666Z,13.60
2023-03-21T19:47:20.303Z,13.60
2023-03-21T19:51:07.896Z,13.57
2023-03-21T19:53:56.114Z,13.55
2023-03-21T19:57:02.133Z,13.48
2023-03-21T20:00:11.610Z,13.44
2023-03-21T20:03:20.040Z,13.31
2023-03-21T20:06:25.651Z,13.29
2023-03-21T20:09:50.829Z,13.25
2023-03-21T20:12:58.180Z,13.21
2023-03-21T20:16:04.153Z,13.23
2023-03-21T20:19:16.432Z,13.18
2023-03-21T20:22:42.351Z,13.10
2023-03-21T20:25:49.643Z,13.13
2023-03-21T20:29:25.147Z,13.13
2023-03-21T20:32:23.595Z,13.11
2023-03-21T20:36:16.504Z,13.08
2023-03-21T20:38:54.629Z,13.10
2023-03-21T20:42:00.117Z,13.09
2023-03-21T20:45:07.018Z,13.13
2023-03-21T20:48:12.364Z,13.02
2023-03-21T20:52:29.468Z,13.01
2023-03-21T20:54:43.837Z,13.06
2023-03-21T20:57:50.989Z,13.00
2023-03-21T21:00:59.669Z,12.93
2023-03-21T21:04:05.737Z,12.96
2023-03-21T21:07:16.371Z,12.96
2023-03-21T21:10:22.465Z,12.96
2023-03-21T21:13:28.441Z,12.89
2023-03-21T21:16:33.791Z,12.74
2023-03-21T21:19:39.670Z,12.60
2023-03-21T21:22:58.964Z,12.65
2023-03-21T21:26:09.093Z,12.69
2023-03-21T21:29:18.355Z,12.71
2023-03-21T21:32:23.708Z,12.62
2023-03-21T21:35:29.749Z,12.65
2023-03-21T21:38:36.310Z,12.62
2023-03-21T21:41:42.600Z,12.62
2023-03-21T21:44:48.175Z,12.64
2023-03-21T21:47:53.594Z,12.67
2023-03-21T21:51:01.154Z,12.58
2023-03-21T21:54:06.641Z,12.50
2023-03-21T21:57:12.392Z,12.49
2023-03-21T22:00:19.900Z,12.41
2023-03-21T22:03:25.583Z,12.36
2023-03-21T22:06:31.423Z,12.18
2023-03-21T22:09:36.810Z,12.21
2023-03-21T22:12:42.295Z,12.28
2023-03-21T22:15:47.989Z,12.31
2023-03-21T22:18:53.686Z,12.21
2023-03-21T22:21:59.072Z,12.21
2023-03-21T22:25:07.843Z,12.19
2023-03-21T22:28:13.229Z,12.07
2023-03-21T22:31:18.525Z,12.15
2023-03-21T22:34:26.631Z,12.05
2023-03-21T22:37:33.810Z,12.12
2023-03-21T22:40:39.701Z,12.16
2023-03-21T22:43:45.309Z,11.99
2023-03-21T22:46:51.025Z,12.01
2023-03-21T22:49:56.537Z,11.98
2023-03-21T22:53:02.672Z,11.98
2023-03-21T22:56:08.578Z,11.95
2023-03-21T22:59:14.095Z,11.93
2023-03-21T23:02:19.730Z,11.90
2023-03-21T23:05:26.944Z,11.77
2023-03-21T23:08:32.857Z,11.72
2023-03-21T23:11:38.908Z,11.81
2023-03-21T23:14:44.574Z,11.89
2023-03-21T23:17:50.508Z,11.90
2023-03-21T23:20:58.666Z,11.80
2023-03-21T23:24:08.089Z,11.78
2023-03-21T23:27:14.689Z,11.74
2023-03-21T23:30:20.865Z,11.86
2023-03-21T23:33:26.682Z,11.83
2023-03-21T23:36:33.017Z,11.86
2023-03-21T23:39:39.716Z,11.78
2023-03-21T23:43:10.119Z,11.73
2023-03-21T23:46:16.982Z,11.61
2023-03-21T23:49:22.187Z,11.65
2023-03-21T23:52:28.226Z,11.62
2023-03-21T23:55:33.792Z,11.53
2023-03-21T23:58:39.299Z,11.32
